sensor_id;sensor_type;location;lat;lon;timestamp;P1;durP1;ratioP1;P2;durP2;ratioP2
67798;SDS011;54596;43.216;27.904;2023-03-01T00:00:07;9.25;;;5.30;;
67798;SDS011;54596;43.216;27.904;2023-03-01T00:02:33;9.52;;;5.40;;
67798;SDS011;54596;43.216;27.904;2023-03-01T00:04:59;10.65;;;5.45;;
67798;SDS011;54596;43.216;27.904;2023-03-01T00:07:24;9.70;;;5.22;;
67798;SDS011;54596;43.216;27.904;2023-03-01T00:09:49;9.90;;;5.70;;
67798;SDS011;54596;43.216;27.904;2023-03-01T00:12:15;10.40;;;6.40;;
67798;SDS011;54596;43.216;27.904;2023-03-01T00:14:41;10.75;;;6.30;;
67798;SDS011;54596;43.216;27.904;2023-03-01T00:17:06;10.75;;;6.18;;
67798;SDS011;54596;43.216;27.904;2023-03-01T00:19:32;11.02;;;6.70;;
67798;SDS011;54596;43.216;27.904;2023-03-01T00:21:57;12.57;;;7.10;;
67798;SDS011;54596;43.216;27.904;2023-03-01T00:24:23;11.13;;;7.15;;
67798;SDS011;54596;43.216;27.904;2023-03-01T00:26:48;12.02;;;7.38;;
67798;SDS011;54596;43.216;27.904;2023-03-01T00:29:17;12.35;;;7.63;;
67798;SDS011;54596;43.216;27.904;2023-03-01T00:31:42;12.52;;;7.50;;
67798;SDS011;54596;43.216;27.904;2023-03-01T00:34:08;11.32;;;7.57;;
67798;SDS011;54596;43.216;27.904;2023-03-01T00:36:35;12.00;;;7.63;;
67798;SDS011;54596;43.216;27.904;2023-03-01T00:39:02;12.40;;;7.85;;
67798;SDS011;54596;43.216;27.904;2023-03-01T00:41:29;12.15;;;7.50;;
67798;SDS011;54596;43.216;27.904;2023-03-01T00:43:55;14.50;;;8.68;;
67798;SDS011;54596;43.216;27.904;2023-03-01T00:46:25;12.57;;;8.00;;
67798;SDS011;54596;43.216;27.904;2023-03-01T00:48:52;13.73;;;8.40;;
67798;SDS011;54596;43.216;27.904;2023-03-01T00:51:19;11.68;;;7.30;;
67798;SDS011;54596;43.216;27.904;2023-03-01T00:53:52;11.88;;;6.00;;
67798;SDS011;54596;43.216;27.904;2023-03-01T00:56:19;9.75;;;5.63;;
67798;SDS011;54596;43.216;27.904;2023-03-01T00:58:45;11.55;;;5.60;;
67798;SDS011;54596;43.216;27.904;2023-03-01T01:01:12;10.35;;;5.57;;
67798;SDS011;54596;43.216;27.904;2023-03-01T01:03:47;10.02;;;5.95;;
67798;SDS011;54596;43.216;27.904;2023-03-01T01:06:15;10.88;;;5.95;;
67798;SDS011;54596;43.216;27.904;2023-03-01T01:08:42;10.13;;;5.93;;
67798;SDS011;54596;43.216;27.904;2023-03-01T01:11:08;11.13;;;5.57;;
67798;SDS011;54596;43.216;27.904;2023-03-01T01:13:35;9.98;;;5.78;;
67798;SDS011;54596;43.216;27.904;2023-03-01T01:16:01;10.35;;;6.50;;
67798;SDS011;54596;43.216;27.904;2023-03-01T01:18:30;10.85;;;6.80;;
67798;SDS011;54596;43.216;27.904;2023-03-01T01:20:56;11.75;;;6.80;;
67798;SDS011;54596;43.216;27.904;2023-03-01T01:23:21;10.82;;;6.90;;
67798;SDS011;54596;43.216;27.904;2023-03-01T01:25:47;12.80;;;7.35;;
67798;SDS011;54596;43.216;27.904;2023-03-01T01:28:12;11.32;;;7.38;;
67798;SDS011;54596;43.216;27.904;2023-03-01T01:30:38;13.07;;;7.72;;
67798;SDS011;54596;43.216;27.904;2023-03-01T01:33:04;14.15;;;8.90;;
67798;SDS011;54596;43.216;27.904;2023-03-01T01:35:29;13.93;;;8.30;;
67798;SDS011;54596;43.216;27.904;2023-03-01T01:37:55;13.20;;;8.00;;
67798;SDS011;54596;43.216;27.904;2023-03-01T01:40:20;12.27;;;8.55;;
67798;SDS011;54596;43.216;27.904;2023-03-01T01:42:46;13.38;;;8.73;;
67798;SDS011;54596;43.216;27.904;2023-03-01T01:47:51;13.35;;;9.07;;
67798;SDS011;54596;43.216;27.904;2023-03-01T01:50:22;15.25;;;9.18;;
67798;SDS011;54596;43.216;27.904;2023-03-01T01:52:48;13.80;;;9.48;;
67798;SDS011;54596;43.216;27.904;2023-03-01T01:55:17;13.80;;;9.45;;
67798;SDS011;54596;43.216;27.904;2023-03-01T01:58:08;13.80;;;9.75;;
67798;SDS011;54596;43.216;27.904;2023-03-01T02:00:34;15.13;;;10.77;;
67798;SDS011;54596;43.216;27.904;2023-03-01T02:03:23;15.65;;;10.45;;
67798;SDS011;54596;43.216;27.904;2023-03-01T02:08:36;16.75;;;10.50;;
67798;SDS011;54596;43.216;27.904;2023-03-01T02:11:06;16.33;;;10.73;;
67798;SDS011;54596;43.216;27.904;2023-03-01T02:13:39;15.85;;;10.48;;
67798;SDS011;54596;43.216;27.904;2023-03-01T02:16:12;15.10;;;10.27;;
67798;SDS011;54596;43.216;27.904;2023-03-01T02:18:39;14.63;;;10.50;;
67798;SDS011;54596;43.216;27.904;2023-03-01T02:23:46;13.73;;;9.93;;
67798;SDS011;54596;43.216;27.904;2023-03-01T02:29:05;15.18;;;10.60;;
67798;SDS011;54596;43.216;27.904;2023-03-01T02:31:34;14.95;;;10.18;;
67798;SDS011;54596;43.216;27.904;2023-03-01T02:34:07;15.25;;;11.68;;
67798;SDS011;54596;43.216;27.904;2023-03-01T02:36:37;15.32;;;11.10;;
67798;SDS011;54596;43.216;27.904;2023-03-01T02:39:08;15.93;;;11.45;;
67798;SDS011;54596;43.216;27.904;2023-03-01T02:41:39;15.60;;;11.32;;
67798;SDS011;54596;43.216;27.904;2023-03-01T02:44:08;15.82;;;11.23;;
67798;SDS011;54596;43.216;27.904;2023-03-01T02:46:34;17.27;;;11.43;;
67798;SDS011;54596;43.216;27.904;2023-03-01T02:55:08;18.17;;;12.35;;
67798;SDS011;54596;43.216;27.904;2023-03-01T02:57:39;17.85;;;12.10;;
67798;SDS011;54596;43.216;27.904;2023-03-01T03:00:13;17.80;;;12.30;;
67798;SDS011;54596;43.216;27.904;2023-03-01T03:02:46;17.05;;;12.52;;
67798;SDS011;54596;43.216;27.904;2023-03-01T03:05:28;18.80;;;13.27;;
67798;SDS011;54596;43.216;27.904;2023-03-01T03:07:56;18.30;;;13.20;;
67798;SDS011;54596;43.216;27.904;2023-03-01T03:10:23;19.58;;;14.20;;
67798;SDS011;54596;43.216;27.904;2023-03-01T03:12:53;19.27;;;13.65;;
67798;SDS011;54596;43.216;27.904;2023-03-01T03:15:24;19.77;;;13.95;;
67798;SDS011;54596;43.216;27.904;2023-03-01T03:17:51;19.08;;;14.73;;
67798;SDS011;54596;43.216;27.904;2023-03-01T03:20:19;19.13;;;14.63;;
67798;SDS011;54596;43.216;27.904;2023-03-01T03:22:50;21.23;;;15.35;;
67798;SDS011;54596;43.216;27.904;2023-03-01T03:25:17;21.65;;;15.98;;
67798;SDS011;54596;43.216;27.904;2023-03-01T03:27:44;20.45;;;15.45;;
67798;SDS011;54596;43.216;27.904;2023-03-01T03:30:12;21.70;;;16.40;;
67798;SDS011;54596;43.216;27.904;2023-03-01T03:32:43;22.25;;;16.70;;
67798;SDS011;54596;43.216;27.904;2023-03-01T03:35:20;21.55;;;16.52;;
67798;SDS011;54596;43.216;27.904;2023-03-01T03:37:58;21.90;;;16.60;;
67798;SDS011;54596;43.216;27.904;2023-03-01T03:40:30;20.53;;;17.10;;
67798;SDS011;54596;43.216;27.904;2023-03-01T03:45:46;23.55;;;16.63;;
67798;SDS011;54596;43.216;27.904;2023-03-01T03:48:13;23.77;;;17.27;;
67798;SDS011;54596;43.216;27.904;2023-03-01T03:50:39;21.73;;;16.73;;
67798;SDS011;54596;43.216;27.904;2023-03-01T03:53:10;22.25;;;17.17;;
67798;SDS011;54596;43.216;27.904;2023-03-01T03:55:37;25.67;;;18.17;;
67798;SDS011;54596;43.216;27.904;2023-03-01T04:00:51;22.10;;;18.00;;
67798;SDS011;54596;43.216;27.904;2023-03-01T04:03:18;23.40;;;18.08;;
67798;SDS011;54596;43.216;27.904;2023-03-01T04:05:45;24.45;;;17.90;;
67798;SDS011;54596;43.216;27.904;2023-03-01T04:08:11;27.02;;;18.45;;
67798;SDS011;54596;43.216;27.904;2023-03-01T04:10:40;25.75;;;18.98;;
67798;SDS011;54596;43.216;27.904;2023-03-01T04:13:10;24.30;;;18.67;;
67798;SDS011;54596;43.216;27.904;2023-03-01T04:15:38;26.55;;;19.15;;
67798;SDS011;54596;43.216;27.904;2023-03-01T04:18:04;29.02;;;19.05;;
67798;SDS011;54596;43.216;27.904;2023-03-01T04:20:31;25.13;;;18.98;;
67798;SDS011;54596;43.216;27.904;2023-03-01T04:23:07;24.42;;;18.80;;
67798;SDS011;54596;43.216;27.904;2023-03-01T04:25:46;25.42;;;19.38;;
67798;SDS011;54596;43.216;27.904;2023-03-01T04:28:14;26.00;;;19.52;;
67798;SDS011;54596;43.216;27.904;2023-03-01T04:30:40;25.75;;;20.00;;
67798;SDS011;54596;43.216;27.904;2023-03-01T04:33:10;25.52;;;18.92;;
67798;SDS011;54596;43.216;27.904;2023-03-01T04:35:37;25.73;;;18.70;;
67798;SDS011;54596;43.216;27.904;2023-03-01T04:38:04;24.88;;;18.38;;
67798;SDS011;54596;43.216;27.904;2023-03-01T04:40:30;25.48;;;18.33;;
67798;SDS011;54596;43.216;27.904;2023-03-01T04:42:56;26.58;;;18.25;;
67798;SDS011;54596;43.216;27.904;2023-03-01T04:45:21;23.50;;;17.10;;
67798;SDS011;54596;43.216;27.904;2023-03-01T04:47:47;22.75;;;17.20;;
67798;SDS011;54596;43.216;27.904;2023-03-01T04:50:14;23.23;;;16.95;;
67798;SDS011;54596;43.216;27.904;2023-03-01T04:52:41;21.80;;;16.63;;
67798;SDS011;54596;43.216;27.904;2023-03-01T04:55:10;22.40;;;15.85;;
67798;SDS011;54596;43.216;27.904;2023-03-01T04:57:35;21.95;;;16.52;;
67798;SDS011;54596;43.216;27.904;2023-03-01T05:00:02;21.83;;;16.60;;
67798;SDS011;54596;43.216;27.904;2023-03-01T05:02:45;22.88;;;16.90;;
67798;SDS011;54596;43.216;27.904;2023-03-01T05:05:13;21.05;;;16.80;;
67798;SDS011;54596;43.216;27.904;2023-03-01T05:07:39;21.83;;;16.10;;
67798;SDS011;54596;43.216;27.904;2023-03-01T05:10:04;23.13;;;16.65;;
67798;SDS011;54596;43.216;27.904;2023-03-01T05:12:30;22.33;;;17.05;;
67798;SDS011;54596;43.216;27.904;2023-03-01T05:14:55;21.65;;;17.02;;
67798;SDS011;54596;43.216;27.904;2023-03-01T05:17:23;23.25;;;16.67;;
67798;SDS011;54596;43.216;27.904;2023-03-01T05:19:49;21.52;;;16.77;;
67798;SDS011;54596;43.216;27.904;2023-03-01T05:22:15;22.65;;;16.70;;
67798;SDS011;54596;43.216;27.904;2023-03-01T05:24:40;21.52;;;15.48;;
67798;SDS011;54596;43.216;27.904;2023-03-01T05:27:06;24.00;;;16.85;;
67798;SDS011;54596;43.216;27.904;2023-03-01T05:29:31;19.88;;;15.90;;
67798;SDS011;54596;43.216;27.904;2023-03-01T05:32:00;20.77;;;15.93;;
67798;SDS011;54596;43.216;27.904;2023-03-01T05:34:31;21.88;;;16.58;;
67798;SDS011;54596;43.216;27.904;2023-03-01T05:37:00;24.30;;;17.33;;
67798;SDS011;54596;43.216;27.904;2023-03-01T05:39:26;21.30;;;16.27;;
67798;SDS011;54596;43.216;27.904;2023-03-01T05:41:59;21.65;;;16.52;;
67798;SDS011;54596;43.216;27.904;2023-03-01T05:44:26;23.00;;;17.42;;
67798;SDS011;54596;43.216;27.904;2023-03-01T05:46:53;22.58;;;15.95;;
67798;SDS011;54596;43.216;27.904;2023-03-01T05:49:19;22.40;;;16.60;;
67798;SDS011;54596;43.216;27.904;2023-03-01T05:51:48;22.67;;;16.80;;
67798;SDS011;54596;43.216;27.904;2023-03-01T05:54:16;22.25;;;16.45;;
67798;SDS011;54596;43.216;27.904;2023-03-01T05:56:41;27.45;;;20.95;;
67798;SDS011;54596;43.216;27.904;2023-03-01T05:59:08;25.15;;;16.73;;
67798;SDS011;54596;43.216;27.904;2023-03-01T06:01:34;21.70;;;15.57;;
67798;SDS011;54596;43.216;27.904;2023-03-01T06:04:01;23.08;;;15.93;;
67798;SDS011;54596;43.216;27.904;2023-03-01T06:06:27;24.73;;;18.38;;
67798;SDS011;54596;43.216;27.904;2023-03-01T06:08:53;21.65;;;16.55;;
67798;SDS011;54596;43.216;27.904;2023-03-01T06:11:20;22.02;;;16.15;;
67798;SDS011;54596;43.216;27.904;2023-03-01T06:13:46;21.55;;;17.42;;
67798;SDS011;54596;43.216;27.904;2023-03-01T06:16:12;23.63;;;16.67;;
67798;SDS011;54596;43.216;27.904;2023-03-01T06:18:38;23.90;;;17.23;;
67798;SDS011;54596;43.216;27.904;2023-03-01T06:21:04;23.85;;;16.73;;
67798;SDS011;54596;43.216;27.904;2023-03-01T06:23:31;21.40;;;15.90;;
67798;SDS011;54596;43.216;27.904;2023-03-01T06:25:57;21.23;;;15.50;;
67798;SDS011;54596;43.216;27.904;2023-03-01T06:28:22;20.27;;;15.25;;
67798;SDS011;54596;43.216;27.904;2023-03-01T06:30:49;22.30;;;17.25;;
67798;SDS011;54596;43.216;27.904;2023-03-01T06:33:19;24.42;;;18.30;;
67798;SDS011;54596;43.216;27.904;2023-03-01T06:35:49;21.50;;;15.25;;
67798;SDS011;54596;43.216;27.904;2023-03-01T06:38:15;23.50;;;16.00;;
67798;SDS011;54596;43.216;27.904;2023-03-01T06:40:44;23.13;;;16.60;;
67798;SDS011;54596;43.216;27.904;2023-03-01T06:43:10;21.73;;;16.35;;
67798;SDS011;54596;43.216;27.904;2023-03-01T06:45:36;23.15;;;16.35;;
67798;SDS011;54596;43.216;27.904;2023-03-01T06:48:05;21.40;;;16.02;;
67798;SDS011;54596;43.216;27.904;2023-03-01T06:50:31;24.55;;;16.65;;
67798;SDS011;54596;43.216;27.904;2023-03-01T06:52:57;23.38;;;17.02;;
67798;SDS011;54596;43.216;27.904;2023-03-01T06:55:23;22.85;;;17.33;;
67798;SDS011;54596;43.216;27.904;2023-03-01T06:57:53;25.00;;;17.48;;
67798;SDS011;54596;43.216;27.904;2023-03-01T07:00:20;22.95;;;16.85;;
67798;SDS011;54596;43.216;27.904;2023-03-01T07:02:46;22.70;;;17.73;;
67798;SDS011;54596;43.216;27.904;2023-03-01T07:05:11;23.23;;;17.52;;
67798;SDS011;54596;43.216;27.904;2023-03-01T07:07:37;22.88;;;17.42;;
67798;SDS011;54596;43.216;27.904;2023-03-01T07:10:03;22.30;;;17.00;;
67798;SDS011;54596;43.216;27.904;2023-03-01T07:12:29;25.02;;;18.13;;
67798;SDS011;54596;43.216;27.904;2023-03-01T07:14:54;23.95;;;18.45;;
67798;SDS011;54596;43.216;27.904;2023-03-01T07:17:20;27.05;;;18.95;;
67798;SDS011;54596;43.216;27.904;2023-03-01T07:19:45;24.88;;;18.65;;
67798;SDS011;54596;43.216;27.904;2023-03-01T07:22:14;25.67;;;18.50;;
67798;SDS011;54596;43.216;27.904;2023-03-01T07:24:40;25.40;;;18.77;;
67798;SDS011;54596;43.216;27.904;2023-03-01T07:27:06;24.60;;;18.08;;
67798;SDS011;54596;43.216;27.904;2023-03-01T07:29:32;23.85;;;18.00;;
67798;SDS011;54596;43.216;27.904;2023-03-01T07:31:57;25.85;;;19.20;;
67798;SDS011;54596;43.216;27.904;2023-03-01T07:34:23;25.38;;;19.20;;
67798;SDS011;54596;43.216;27.904;2023-03-01T07:36:49;25.67;;;19.40;;
67798;SDS011;54596;43.216;27.904;2023-03-01T07:39:14;28.02;;;20.10;;
67798;SDS011;54596;43.216;27.904;2023-03-01T07:41:40;28.27;;;20.50;;
67798;SDS011;54596;43.216;27.904;2023-03-01T07:44:05;28.98;;;21.00;;
67798;SDS011;54596;43.216;27.904;2023-03-01T07:46:31;33.67;;;22.58;;
67798;SDS011;54596;43.216;27.904;2023-03-01T07:48:57;29.02;;;20.65;;
67798;SDS011;54596;43.216;27.904;2023-03-01T07:51:24;28.80;;;19.48;;
67798;SDS011;54596;43.216;27.904;2023-03-01T07:53:49;26.52;;;19.75;;
67798;SDS011;54596;43.216;27.904;2023-03-01T07:56:15;30.73;;;20.20;;
67798;SDS011;54596;43.216;27.904;2023-03-01T07:58:43;133.95;;;25.85;;
67798;SDS011;54596;43.216;27.904;2023-03-01T08:01:10;26.80;;;19.70;;
67798;SDS011;54596;43.216;27.904;2023-03-01T08:03:37;29.77;;;21.05;;
67798;SDS011;54596;43.216;27.904;2023-03-01T08:06:03;32.58;;;21.67;;
67798;SDS011;54596;43.216;27.904;2023-03-01T08:08:31;32.85;;;20.77;;
67798;SDS011;54596;43.216;27.904;2023-03-01T08:10:57;30.10;;;21.45;;
67798;SDS011;54596;43.216;27.904;2023-03-01T08:13:24;29.25;;;19.30;;
67798;SDS011;54596;43.216;27.904;2023-03-01T08:15:49;26.45;;;18.55;;
67798;SDS011;54596;43.216;27.904;2023-03-01T08:18:15;28.17;;;19.00;;
67798;SDS011;54596;43.216;27.904;2023-03-01T08:20:41;28.83;;;18.63;;
67798;SDS011;54596;43.216;27.904;2023-03-01T08:23:07;34.67;;;19.98;;
67798;SDS011;54596;43.216;27.904;2023-03-01T08:25:33;30.10;;;20.30;;
67798;SDS011;54596;43.216;27.904;2023-03-01T08:27:58;39.92;;;20.17;;
67798;SDS011;54596;43.216;27.904;2023-03-01T08:30:25;36.95;;;20.45;;
67798;SDS011;54596;43.216;27.904;2023-03-01T08:32:51;30.63;;;19.02;;
67798;SDS011;54596;43.216;27.904;2023-03-01T08:35:16;31.38;;;18.90;;
67798;SDS011;54596;43.216;27.904;2023-03-01T08:37:42;29.48;;;18.40;;
67798;SDS011;54596;43.216;27.904;2023-03-01T08:42:52;26.65;;;18.42;;
67798;SDS011;54596;43.216;27.904;2023-03-01T08:45:17;27.75;;;17.73;;
67798;SDS011;54596;43.216;27.904;2023-03-01T08:47:43;26.60;;;19.08;;
67798;SDS011;54596;43.216;27.904;2023-03-01T08:50:10;29.48;;;19.67;;
67798;SDS011;54596;43.216;27.904;2023-03-01T08:52:37;30.45;;;19.10;;
67798;SDS011;54596;43.216;27.904;2023-03-01T08:55:02;31.23;;;19.95;;
67798;SDS011;54596;43.216;27.904;2023-03-01T08:57:28;28.02;;;19.80;;
67798;SDS011;54596;43.216;27.904;2023-03-01T08:59:55;25.70;;;18.52;;
67798;SDS011;54596;43.216;27.904;2023-03-01T09:02:21;26.80;;;18.63;;
67798;SDS011;54596;43.216;27.904;2023-03-01T09:04:46;29.52;;;19.70;;
67798;SDS011;54596;43.216;27.904;2023-03-01T09:07:12;26.65;;;19.80;;
67798;SDS011;54596;43.216;27.904;2023-03-01T09:09:37;27.45;;;18.63;;
67798;SDS011;54596;43.216;27.904;2023-03-01T09:12:03;25.38;;;18.27;;
67798;SDS011;54596;43.216;27.904;2023-03-01T09:14:29;28.25;;;19.58;;
67798;SDS011;54596;43.216;27.904;2023-03-01T09:16:56;27.83;;;19.77;;
67798;SDS011;54596;43.216;27.904;2023-03-01T09:19:22;33.67;;;20.95;;
67798;SDS011;54596;43.216;27.904;2023-03-01T09:21:48;29.90;;;20.75;;
67798;SDS011;54596;43.216;27.904;2023-03-01T09:24:21;25.77;;;20.27;;
67798;SDS011;54596;43.216;27.904;2023-03-01T09:26:49;31.15;;;22.02;;
67798;SDS011;54596;43.216;27.904;2023-03-01T09:29:15;33.15;;;21.02;;
67798;SDS011;54596;43.216;27.904;2023-03-01T09:31:41;30.00;;;20.42;;
67798;SDS011;54596;43.216;27.904;2023-03-01T09:34:08;31.10;;;21.55;;
67798;SDS011;54596;43.216;27.904;2023-03-01T09:36:33;36.67;;;22.50;;
67798;SDS011;54596;43.216;27.904;2023-03-01T09:39:00;30.85;;;22.17;;
67798;SDS011;54596;43.216;27.904;2023-03-01T09:47:00;38.15;;;24.25;;
67798;SDS011;54596;43.216;27.904;2023-03-01T09:49:34;33.00;;;22.65;;
67798;SDS011;54596;43.216;27.904;2023-03-01T09:54:55;37.83;;;21.13;;
67798;SDS011;54596;43.216;27.904;2023-03-01T09:59:59;34.78;;;20.95;;
67798;SDS011;54596;43.216;27.904;2023-03-01T10:02:43;30.15;;;19.85;;
67798;SDS011;54596;43.216;27.904;2023-03-01T10:07:54;29.17;;;19.50;;
67798;SDS011;54596;43.216;27.904;2023-03-01T10:10:38;29.52;;;20.25;;
67798;SDS011;54596;43.216;27.904;2023-03-01T10:13:28;29.38;;;20.30;;
67798;SDS011;54596;43.216;27.904;2023-03-01T10:16:47;30.02;;;19.92;;
67798;SDS011;54596;43.216;27.904;2023-03-01T10:19:03;34.13;;;21.33;;
67798;SDS011;54596;43.216;27.904;2023-03-01T10:21:31;31.58;;;18.40;;
67798;SDS011;54596;43.216;27.904;2023-03-01T10:24:10;34.00;;;18.80;;
67798;SDS011;54596;43.216;27.904;2023-03-01T10:26:41;26.55;;;18.73;;
67798;SDS011;54596;43.216;27.904;2023-03-01T10:29:15;35.25;;;19.88;;
67798;SDS011;54596;43.216;27.904;2023-03-01T10:34:26;33.78;;;17.65;;
67798;SDS011;54596;43.216;27.904;2023-03-01T10:37:16;28.02;;;16.92;;
67798;SDS011;54596;43.216;27.904;2023-03-01T10:42:50;24.92;;;15.13;;
67798;SDS011;54596;43.216;27.904;2023-03-01T10:48:02;22.27;;;13.93;;
67798;SDS011;54596;43.216;27.904;2023-03-01T10:50:28;24.52;;;14.13;;
67798;SDS011;54596;43.216;27.904;2023-03-01T10:53:01;23.60;;;15.13;;
67798;SDS011;54596;43.216;27.904;2023-03-01T11:00:33;25.75;;;15.60;;
67798;SDS011;54596;43.216;27.904;2023-03-01T11:03:12;21.33;;;14.45;;
67798;SDS011;54596;43.216;27.904;2023-03-01T11:05:53;25.85;;;14.98;;
67798;SDS011;54596;43.216;27.904;2023-03-01T11:08:37;25.58;;;15.60;;
67798;SDS011;54596;43.216;27.904;2023-03-01T11:11:22;22.90;;;15.38;;
67798;SDS011;54596;43.216;27.904;2023-03-01T11:13:59;31.55;;;16.45;;
67798;SDS011;54596;43.216;27.904;2023-03-01T11:21:33;27.75;;;15.10;;
67798;SDS011;54596;43.216;27.904;2023-03-01T11:24:15;33.20;;;16.08;;
67798;SDS011;54596;43.216;27.904;2023-03-01T11:26:45;19.40;;;13.07;;
67798;SDS011;54596;43.216;27.904;2023-03-01T11:29:21;25.73;;;13.75;;
67798;SDS011;54596;43.216;27.904;2023-03-01T11:32:01;26.67;;;14.05;;
67798;SDS011;54596;43.216;27.904;2023-03-01T11:34:38;27.35;;;14.45;;
67798;SDS011;54596;43.216;27.904;2023-03-01T11:37:43;17.60;;;11.70;;
67798;SDS011;54596;43.216;27.904;2023-03-01T11:45:16;17.63;;;11.60;;
67798;SDS011;54596;43.216;27.904;2023-03-01T11:50:23;20.23;;;12.35;;
67798;SDS011;54596;43.216;27.904;2023-03-01T11:55:51;26.98;;;13.05;;
67798;SDS011;54596;43.216;27.904;2023-03-01T12:16:48;21.00;;;12.23;;
67798;SDS011;54596;43.216;27.904;2023-03-01T12:25:38;19.27;;;12.77;;
67798;SDS011;54596;43.216;27.904;2023-03-01T12:38:41;17.07;;;11.00;;
67798;SDS011;54596;43.216;27.904;2023-03-01T12:50:04;17.50;;;11.73;;
67798;SDS011;54596;43.216;27.904;2023-03-01T12:52:41;22.33;;;12.10;;
67798;SDS011;54596;43.216;27.904;2023-03-01T12:58:06;17.38;;;10.38;;
67798;SDS011;54596;43.216;27.904;2023-03-01T13:09:48;14.48;;;10.13;;
67798;SDS011;54596;43.216;27.904;2023-03-01T13:11:55;17.35;;;9.90;;
67798;SDS011;54596;43.216;27.904;2023-03-01T13:16:53;14.93;;;9.90;;
67798;SDS011;54596;43.216;27.904;2023-03-01T13:19:23;20.08;;;9.95;;
67798;SDS011;54596;43.216;27.904;2023-03-01T13:21:51;18.43;;;10.40;;
67798;SDS011;54596;43.216;27.904;2023-03-01T13:24:39;17.80;;;10.20;;
67798;SDS011;54596;43.216;27.904;2023-03-01T13:29:45;17.83;;;8.65;;
67798;SDS011;54596;43.216;27.904;2023-03-01T13:32:25;24.17;;;10.40;;
67798;SDS011;54596;43.216;27.904;2023-03-01T13:37:42;21.02;;;9.45;;
67798;SDS011;54596;43.216;27.904;2023-03-01T13:42:54;22.80;;;10.13;;
67798;SDS011;54596;43.216;27.904;2023-03-01T13:45:38;24.25;;;10.45;;
67798;SDS011;54596;43.216;27.904;2023-03-01T13:48:10;20.42;;;11.15;;
67798;SDS011;54596;43.216;27.904;2023-03-01T13:50:54;25.23;;;10.25;;
67798;SDS011;54596;43.216;27.904;2023-03-01T13:53:24;28.63;;;10.93;;
67798;SDS011;54596;43.216;27.904;2023-03-01T13:55:58;23.65;;;10.90;;
67798;SDS011;54596;43.216;27.904;2023-03-01T13:58:28;22.23;;;10.55;;
67798;SDS011;54596;43.216;27.904;2023-03-01T14:01:06;18.27;;;10.95;;
67798;SDS011;54596;43.216;27.904;2023-03-01T14:03:34;17.42;;;10.32;;
67798;SDS011;54596;43.216;27.904;2023-03-01T14:06:14;20.67;;;10.68;;
67798;SDS011;54596;43.216;27.904;2023-03-01T14:08:43;18.13;;;10.30;;
67798;SDS011;54596;43.216;27.904;2023-03-01T14:19:28;18.35;;;11.25;;
67798;SDS011;54596;43.216;27.904;2023-03-01T14:22:16;23.70;;;12.85;;
67798;SDS011;54596;43.216;27.904;2023-03-01T14:24:49;28.05;;;13.57;;
67798;SDS011;54596;43.216;27.904;2023-03-01T14:27:17;25.25;;;13.73;;
67798;SDS011;54596;43.216;27.904;2023-03-01T14:29:44;30.98;;;13.30;;
67798;SDS011;54596;43.216;27.904;2023-03-01T14:32:30;19.88;;;12.57;;
67798;SDS011;54596;43.216;27.904;2023-03-01T14:34:57;21.77;;;12.35;;
67798;SDS011;54596;43.216;27.904;2023-03-01T14:37:28;19.95;;;12.35;;
67798;SDS011;54596;43.216;27.904;2023-03-01T14:39:55;22.33;;;12.70;;
67798;SDS011;54596;43.216;27.904;2023-03-01T14:42:23;23.52;;;12.73;;
67798;SDS011;54596;43.216;27.904;2023-03-01T14:44:53;21.95;;;12.75;;
67798;SDS011;54596;43.216;27.904;2023-03-01T14:52:41;26.02;;;14.23;;
67798;SDS011;54596;43.216;27.904;2023-03-01T14:55:20;24.40;;;14.60;;
67798;SDS011;54596;43.216;27.904;2023-03-01T14:57:51;23.90;;;15.05;;
67798;SDS011;54596;43.216;27.904;2023-03-01T15:00:21;25.02;;;14.90;;
67798;SDS011;54596;43.216;27.904;2023-03-01T15:02:50;28.55;;;14.75;;
67798;SDS011;54596;43.216;27.904;2023-03-01T15:05:18;45.38;;;17.00;;
67798;SDS011;54596;43.216;27.904;2023-03-01T15:07:49;31.65;;;15.63;;
67798;SDS011;54596;43.216;27.904;2023-03-01T15:10:19;23.20;;;16.00;;
67798;SDS011;54596;43.216;27.904;2023-03-01T15:12:47;29.52;;;16.90;;
67798;SDS011;54596;43.216;27.904;2023-03-01T15:15:19;33.38;;;20.67;;
67798;SDS011;54596;43.216;27.904;2023-03-01T15:18:22;29.20;;;19.08;;
67798;SDS011;54596;43.216;27.904;2023-03-01T15:20:52;22.30;;;16.15;;
67798;SDS011;54596;43.216;27.904;2023-03-01T15:23:22;26.38;;;17.17;;
67798;SDS011;54596;43.216;27.904;2023-03-01T15:25:51;25.60;;;17.15;;
67798;SDS011;54596;43.216;27.904;2023-03-01T15:28:28;24.58;;;17.05;;
67798;SDS011;54596;43.216;27.904;2023-03-01T15:30:57;25.17;;;14.48;;
67798;SDS011;54596;43.216;27.904;2023-03-01T15:33:34;25.35;;;14.38;;
67798;SDS011;54596;43.216;27.904;2023-03-01T15:36:02;25.98;;;15.10;;
67798;SDS011;54596;43.216;27.904;2023-03-01T15:38:52;19.70;;;14.25;;
67798;SDS011;54596;43.216;27.904;2023-03-01T15:41:25;20.35;;;14.25;;
67798;SDS011;54596;43.216;27.904;2023-03-01T15:44:13;27.10;;;16.08;;
67798;SDS011;54596;43.216;27.904;2023-03-01T15:46:46;25.50;;;16.42;;
67798;SDS011;54596;43.216;27.904;2023-03-01T15:49:27;22.95;;;15.35;;
67798;SDS011;54596;43.216;27.904;2023-03-01T15:52:01;23.92;;;15.45;;
67798;SDS011;54596;43.216;27.904;2023-03-01T15:54:28;23.10;;;15.95;;
67798;SDS011;54596;43.216;27.904;2023-03-01T15:56:54;27.77;;;16.52;;
67798;SDS011;54596;43.216;27.904;2023-03-01T15:59:20;22.83;;;15.45;;
67798;SDS011;54596;43.216;27.904;2023-03-01T16:01:47;30.42;;;16.55;;
67798;SDS011;54596;43.216;27.904;2023-03-01T16:04:13;21.20;;;15.20;;
67798;SDS011;54596;43.216;27.904;2023-03-01T16:06:52;22.30;;;16.05;;
67798;SDS011;54596;43.216;27.904;2023-03-01T16:09:24;23.08;;;16.17;;
67798;SDS011;54596;43.216;27.904;2023-03-01T16:11:50;21.35;;;15.63;;
67798;SDS011;54596;43.216;27.904;2023-03-01T16:14:17;23.58;;;17.00;;
67798;SDS011;54596;43.216;27.904;2023-03-01T16:16:43;24.10;;;16.40;;
67798;SDS011;54596;43.216;27.904;2023-03-01T16:19:09;22.45;;;14.65;;
67798;SDS011;54596;43.216;27.904;2023-03-01T16:21:35;26.10;;;16.92;;
67798;SDS011;54596;43.216;27.904;2023-03-01T16:24:00;24.38;;;16.40;;
67798;SDS011;54596;43.216;27.904;2023-03-01T16:26:26;24.33;;;16.20;;
67798;SDS011;54596;43.216;27.904;2023-03-01T16:28:54;22.90;;;15.80;;
67798;SDS011;54596;43.216;27.904;2023-03-01T16:31:21;24.27;;;16.48;;
67798;SDS011;54596;43.216;27.904;2023-03-01T16:33:47;21.48;;;15.75;;
67798;SDS011;54596;43.216;27.904;2023-03-01T16:36:18;31.52;;;18.45;;
67798;SDS011;54596;43.216;27.904;2023-03-01T16:38:45;31.65;;;18.67;;
67798;SDS011;54596;43.216;27.904;2023-03-01T16:41:12;33.03;;;20.17;;
67798;SDS011;54596;43.216;27.904;2023-03-01T16:43:39;23.17;;;16.10;;
67798;SDS011;54596;43.216;27.904;2023-03-01T16:46:12;23.05;;;16.60;;
67798;SDS011;54596;43.216;27.904;2023-03-01T16:48:40;27.58;;;17.50;;
67798;SDS011;54596;43.216;27.904;2023-03-01T16:51:05;20.10;;;13.95;;